FXMM/MSU METAR and TAF weather

Enter ICAO airport designator
Station Type Date Time Source
FXMM METAR 2020/10/29 14:00 UTC NOAA

FXMM 291400Z 22022KT 9999 BKN035 FEW040CB 28/09 Q1020 NOSIG


Station Type Date Time Source
FXMM Decoded METAR 2020/10/29 14:00 UTC NOAA

Maseru / Moshoeshoe, Lesotho (FXMM) 29-27S 027-33E
Oct 29, 2020 - 10:00 AM EDT / 2020.10.29 1400 UTC
Wind: from the SW (220 degrees) at 25 MPH (22 KT):0
Visibility: greater than 7 mile(s):0
Sky conditions: mostly cloudy
Weather: Cumulonimbus clouds observed
Temperature: 82 F (28 C)
Dew Point: 48 F (9 C)
Relative Humidity: 30%
Pressure (altimeter): 30.12 in. Hg (1020 hPa)
ob: FXMM 291400Z 22022KT 9999 BKN035 FEW040CB 28/09 Q1020 NOSIG
cycle: 14

Station Type Date Time Source
FXMM TAF 2020/03/16 06:37 UTC NOAA

TAF FXMM 160400Z 1606/1706 00000KT 9999 FEW035 TX24/1612Z TN12/1703Z
BECMG 1608/1610 30010KT
BECMG 1612/1614 FEW035CB PROB30
TEMPO 1615/1618 4000 TSRA
BECMG 1620/1624 00000KT CAVOK

Example: see airport list